createdAt,value
2017-08-31T00:01:29.169Z,4.62
2017-08-31T00:03:56.946Z,4.10
2017-08-31T00:06:24.737Z,4.47
2017-08-31T00:08:52.470Z,4.65
2017-08-31T00:11:20.238Z,4.15
2017-08-31T00:13:47.974Z,4.37
2017-08-31T00:16:15.690Z,4.65
2017-08-31T00:18:43.463Z,3.78
2017-08-31T00:21:11.206Z,4.35
2017-08-31T00:23:38.934Z,3.80
2017-08-31T00:26:06.668Z,4.47
2017-08-31T00:28:34.410Z,4.57
2017-08-31T00:31:03.742Z,4.18
2017-08-31T00:33:31.484Z,3.85
2017-08-31T00:35:59.238Z,4.28
2017-08-31T00:38:27.002Z,3.60
2017-08-31T00:40:54.770Z,3.60
2017-08-31T00:43:22.517Z,4.00
2017-08-31T00:45:50.347Z,4.07
2017-08-31T00:48:18.089Z,4.22
2017-08-31T00:50:45.895Z,4.75
2017-08-31T00:53:13.691Z,4.75
2017-08-31T00:55:41.469Z,4.78
2017-08-31T00:58:09.214Z,4.50
2017-08-31T01:00:38.602Z,4.60
2017-08-31T01:03:06.374Z,5.12
2017-08-31T01:05:34.110Z,5.35
2017-08-31T01:08:01.832Z,4.65
2017-08-31T01:10:29.563Z,5.45
2017-08-31T01:12:57.295Z,4.93
2017-08-31T01:15:25.025Z,5.10
2017-08-31T01:17:52.750Z,4.75
2017-08-31T01:20:20.532Z,4.50
2017-08-31T01:22:48.307Z,4.72
2017-08-31T01:25:16.095Z,4.97
2017-08-31T01:27:43.845Z,4.35
2017-08-31T01:30:11.596Z,4.75
2017-08-31T01:32:39.383Z,5.57
2017-08-31T01:35:07.169Z,5.00
2017-08-31T01:37:34.958Z,5.57
2017-08-31T01:40:02.754Z,5.62
2017-08-31T01:48:17.058Z,5.00
2017-08-31T01:50:44.830Z,4.93
2017-08-31T01:53:12.605Z,4.90
2017-08-31T01:55:40.363Z,4.82
2017-08-31T01:58:08.109Z,4.95
2017-08-31T02:00:35.915Z,5.62
2017-08-31T02:03:03.678Z,5.03
2017-08-31T02:05:31.433Z,5.35
2017-08-31T02:07:59.166Z,5.55
2017-08-31T02:10:26.937Z,5.82
2017-08-31T02:12:54.662Z,5.90
2017-08-31T02:15:22.375Z,6.03
2017-08-31T02:32:21.417Z,6.05
2017-08-31T02:34:49.194Z,5.25
2017-08-31T02:37:16.926Z,5.65
2017-08-31T02:39:44.650Z,5.07
2017-08-31T02:42:12.387Z,6.15
2017-08-31T02:44:40.122Z,6.15
2017-08-31T02:47:07.834Z,5.90
2017-08-31T02:49:35.550Z,6.25
2017-08-31T02:52:03.283Z,5.50
2017-08-31T02:54:31.006Z,6.35
2017-08-31T02:56:58.727Z,5.85
2017-08-31T02:59:26.446Z,5.00
2017-08-31T03:01:54.295Z,6.05
2017-08-31T03:04:22.011Z,5.00
2017-08-31T03:06:49.731Z,6.05
2017-08-31T03:09:17.442Z,5.60
2017-08-31T03:11:45.155Z,5.28
2017-08-31T03:14:12.886Z,4.90
2017-08-31T03:16:40.605Z,5.32
2017-08-31T03:19:08.316Z,4.93
2017-08-31T03:21:36.026Z,5.20
2017-08-31T03:24:03.759Z,5.40
2017-08-31T03:26:31.475Z,4.97
2017-08-31T03:28:59.196Z,4.90
2017-08-31T03:31:26.918Z,5.25
2017-08-31T03:33:54.639Z,5.82
2017-08-31T03:36:22.357Z,5.53
2017-08-31T03:38:50.074Z,5.10
2017-08-31T03:41:17.788Z,5.35
2017-08-31T03:43:45.502Z,5.68
2017-08-31T03:46:13.223Z,5.80
2017-08-31T03:48:40.954Z,4.75
2017-08-31T03:51:08.681Z,5.40
2017-08-31T03:53:36.402Z,5.93
2017-08-31T03:56:04.138Z,5.62
2017-08-31T03:58:31.846Z,5.30
2017-08-31T04:00:59.568Z,5.40
2017-08-31T04:03:27.278Z,5.53
2017-08-31T04:05:54.990Z,6.00
2017-08-31T04:08:22.698Z,5.15
2017-08-31T04:10:50.415Z,5.45
2017-08-31T04:13:18.130Z,5.53
2017-08-31T04:15:45.865Z,5.15
2017-08-31T04:18:13.594Z,6.30
2017-08-31T04:20:41.311Z,5.80
2017-08-31T04:23:09.019Z,5.45
2017-08-31T04:25:47.361Z,5.68
2017-08-31T04:28:15.077Z,6.28
2017-08-31T04:30:42.791Z,5.32
2017-08-31T04:33:10.519Z,5.20
2017-08-31T04:35:38.295Z,6.00
2017-08-31T04:38:08.578Z,6.65
2017-08-31T04:40:36.329Z,6.28
2017-08-31T04:43:04.045Z,6.55
2017-08-31T04:45:31.768Z,6.43
2017-08-31T04:47:59.492Z,6.82
2017-08-31T04:50:27.234Z,7.10
2017-08-31T04:52:54.955Z,6.72
2017-08-31T04:55:22.686Z,6.37
2017-08-31T04:57:50.488Z,6.78
2017-08-31T05:00:18.252Z,7.72
2017-08-31T05:02:46.987Z,7.18
2017-08-31T05:05:14.757Z,8.32
2017-08-31T05:07:44.089Z,8.20
2017-08-31T05:10:11.861Z,8.30
2017-08-31T05:12:41.990Z,7.62
2017-08-31T05:15:09.750Z,8.40
2017-08-31T05:17:37.553Z,9.25
2017-08-31T05:20:05.319Z,8.50
2017-08-31T05:22:33.079Z,7.62
2017-08-31T05:25:00.863Z,8.60
2017-08-31T05:27:29.626Z,9.68
2017-08-31T05:29:58.495Z,8.10
2017-08-31T05:32:26.290Z,8.30
2017-08-31T05:34:56.236Z,8.55
2017-08-31T05:37:26.350Z,10.32
2017-08-31T05:39:55.468Z,10.40
2017-08-31T05:42:23.250Z,9.70
2017-08-31T05:44:51.001Z,9.38
2017-08-31T05:47:37.997Z,9.77
2017-08-31T05:52:43.093Z,8.43
2017-08-31T05:55:11.002Z,9.45
2017-08-31T05:57:38.818Z,8.20
2017-08-31T06:00:06.607Z,7.78
2017-08-31T06:02:36.227Z,7.78
2017-08-31T06:05:05.127Z,8.10
2017-08-31T06:07:33.001Z,7.75
2017-08-31T06:10:00.754Z,8.45
2017-08-31T06:12:30.566Z,8.35
2017-08-31T06:14:58.569Z,8.43
2017-08-31T06:17:28.927Z,8.38
2017-08-31T06:19:56.670Z,9.45
2017-08-31T06:22:24.407Z,8.93
2017-08-31T06:24:52.130Z,8.43
2017-08-31T06:27:19.858Z,8.68
2017-08-31T06:29:47.595Z,8.60
2017-08-31T06:32:15.982Z,8.65
2017-08-31T06:34:46.154Z,9.50
2017-08-31T06:37:13.903Z,9.32
2017-08-31T06:39:42.878Z,9.35
2017-08-31T06:42:12.526Z,10.13
2017-08-31T06:44:42.538Z,10.30
2017-08-31T06:47:10.335Z,9.35
2017-08-31T06:49:38.071Z,11.10
2017-08-31T06:52:05.798Z,9.07
2017-08-31T06:54:34.402Z,9.25
2017-08-31T06:57:02.927Z,9.50
2017-08-31T06:59:33.847Z,9.02
2017-08-31T07:02:01.640Z,8.73
2017-08-31T07:04:31.764Z,9.55
2017-08-31T07:07:06.848Z,9.18
2017-08-31T07:09:35.892Z,9.98
2017-08-31T07:12:03.610Z,9.38
2017-08-31T07:14:31.336Z,8.88
2017-08-31T07:17:02.819Z,8.63
2017-08-31T07:19:31.543Z,8.23
2017-08-31T07:22:05.155Z,8.52
2017-08-31T07:24:33.502Z,8.00
2017-08-31T07:27:02.479Z,7.60
2017-08-31T07:29:31.474Z,7.80
2017-08-31T07:32:00.282Z,7.82
2017-08-31T07:34:28.565Z,7.10
2017-08-31T07:36:56.316Z,7.12
2017-08-31T07:39:29.231Z,7.37
2017-08-31T07:41:58.716Z,7.45
2017-08-31T07:44:28.284Z,7.00
2017-08-31T07:46:56.390Z,6.62
2017-08-31T07:49:24.106Z,7.15
2017-08-31T07:51:51.819Z,6.35
2017-08-31T07:54:20.208Z,5.78
2017-08-31T07:56:47.929Z,5.70
2017-08-31T07:59:16.262Z,5.15
2017-08-31T08:01:44.717Z,4.30
2017-08-31T08:04:12.470Z,4.18
2017-08-31T08:06:40.195Z,4.03
2017-08-31T08:09:07.920Z,4.57
2017-08-31T08:11:35.638Z,3.90
2017-08-31T08:14:03.379Z,4.30
2017-08-31T08:16:31.350Z,3.95
2017-08-31T08:19:01.263Z,3.00
2017-08-31T08:21:30.050Z,2.60
2017-08-31T08:23:58.559Z,2.35
2017-08-31T08:26:26.296Z,2.28
2017-08-31T08:28:54.020Z,2.15
2017-08-31T08:31:21.732Z,1.83
2017-08-31T08:33:49.483Z,1.92
2017-08-31T08:36:17.211Z,1.67
2017-08-31T08:38:44.934Z,1.87
2017-08-31T08:41:12.670Z,1.58
2017-08-31T08:43:40.420Z,1.25
2017-08-31T08:46:08.167Z,1.50
2017-08-31T08:48:35.924Z,1.60
2017-08-31T08:51:03.690Z,1.58
2017-08-31T08:53:31.393Z,1.30
2017-08-31T08:55:59.102Z,1.30
2017-08-31T08:58:26.808Z,1.48
2017-08-31T09:00:54.527Z,1.40
2017-08-31T09:03:22.237Z,1.50
2017-08-31T09:05:49.949Z,1.42
2017-08-31T09:08:17.692Z,1.60
2017-08-31T09:10:45.426Z,1.45
2017-08-31T09:13:13.148Z,1.52
2017-08-31T09:15:40.859Z,1.80
2017-08-31T09:18:08.614Z,1.35
2017-08-31T09:20:36.330Z,1.37
2017-08-31T09:23:04.066Z,1.75
2017-08-31T09:25:31.807Z,1.85
2017-08-31T09:27:59.575Z,1.55
2017-08-31T09:30:27.330Z,1.30
2017-08-31T09:32:55.045Z,1.60
2017-08-31T09:35:22.754Z,1.80
2017-08-31T09:37:50.483Z,1.45
2017-08-31T09:40:18.199Z,1.83
2017-08-31T09:42:45.908Z,1.55
2017-08-31T09:45:13.622Z,1.62
2017-08-31T09:47:41.352Z,1.90
2017-08-31T09:50:09.110Z,1.45
2017-08-31T09:52:36.831Z,1.10
2017-08-31T09:55:04.554Z,1.25
2017-08-31T09:57:32.269Z,1.60
2017-08-31T09:59:59.982Z,1.40
2017-08-31T10:02:27.688Z,1.83
2017-08-31T10:04:55.414Z,1.83
2017-08-31T10:07:23.132Z,1.55
2017-08-31T10:09:50.857Z,1.40
2017-08-31T10:12:18.594Z,1.40
2017-08-31T10:14:46.310Z,1.70
2017-08-31T10:17:14.089Z,1.50
2017-08-31T10:19:41.818Z,1.50
2017-08-31T10:22:09.547Z,1.40
2017-08-31T10:24:37.262Z,1.58
2017-08-31T10:27:05.036Z,1.90
2017-08-31T10:29:32.794Z,1.60
2017-08-31T10:32:00.553Z,1.70
2017-08-31T10:34:28.326Z,2.10
2017-08-31T10:36:56.089Z,1.65
2017-08-31T10:39:23.834Z,1.70
2017-08-31T10:41:51.583Z,1.60
2017-08-31T10:44:19.329Z,1.65
2017-08-31T10:46:47.082Z,1.83
2017-08-31T10:49:14.851Z,2.05
2017-08-31T10:51:42.612Z,2.00
2017-08-31T10:54:10.382Z,1.95
2017-08-31T10:56:38.167Z,2.05
2017-08-31T10:59:05.962Z,2.10
2017-08-31T11:01:33.730Z,2.50
2017-08-31T11:04:01.502Z,2.60
2017-08-31T11:06:29.269Z,2.50
2017-08-31T11:08:57.025Z,2.50
2017-08-31T11:11:24.786Z,2.50
2017-08-31T11:13:52.597Z,2.40
2017-08-31T11:16:20.375Z,2.10
2017-08-31T11:18:48.135Z,1.95
2017-08-31T11:21:15.873Z,2.35
2017-08-31T11:23:43.626Z,2.00
2017-08-31T11:26:11.386Z,1.90
2017-08-31T11:28:39.329Z,2.00
2017-08-31T11:31:06.998Z,2.10
2017-08-31T11:33:34.827Z,1.92
2017-08-31T11:36:02.576Z,1.83
2017-08-31T11:38:30.287Z,1.70
2017-08-31T11:40:57.992Z,1.77
2017-08-31T11:43:25.712Z,2.00
2017-08-31T11:45:53.424Z,1.90
2017-08-31T11:48:21.146Z,1.95
2017-08-31T11:50:48.862Z,1.92
2017-08-31T11:53:16.599Z,2.40
2017-08-31T11:55:44.329Z,1.98
2017-08-31T11:58:12.050Z,2.22
2017-08-31T12:00:39.797Z,2.92
2017-08-31T12:03:07.519Z,2.58
2017-08-31T12:05:35.278Z,2.80
2017-08-31T12:08:02.986Z,2.45
2017-08-31T12:10:30.726Z,2.97
2017-08-31T12:12:58.441Z,2.50
2017-08-31T12:15:26.165Z,2.60
2017-08-31T12:17:53.891Z,2.80
2017-08-31T12:20:21.597Z,3.00
2017-08-31T12:22:49.356Z,3.08
2017-08-31T12:25:17.079Z,2.53
2017-08-31T12:27:44.786Z,2.80
2017-08-31T12:30:12.503Z,2.58
2017-08-31T12:32:40.234Z,2.70
2017-08-31T12:35:07.963Z,3.12
2017-08-31T12:37:35.692Z,3.05
2017-08-31T12:40:03.402Z,3.20
2017-08-31T12:42:31.157Z,3.70
2017-08-31T12:44:58.885Z,4.10
2017-08-31T12:47:26.609Z,3.10
2017-08-31T12:49:55.127Z,3.25
2017-08-31T12:52:22.864Z,3.65
2017-08-31T12:54:50.586Z,3.55
2017-08-31T12:57:18.312Z,3.45
2017-08-31T12:59:46.028Z,4.18
2017-08-31T13:02:13.754Z,2.85
2017-08-31T13:04:41.480Z,1.80
2017-08-31T13:07:09.198Z,2.40
2017-08-31T13:09:36.915Z,2.28
2017-08-31T13:12:04.631Z,2.10
2017-08-31T13:14:32.349Z,2.70
2017-08-31T13:17:00.078Z,2.03
2017-08-31T13:22:01.642Z,2.00
2017-08-31T13:24:29.377Z,2.00
2017-08-31T13:26:57.098Z,1.80
2017-08-31T13:29:24.869Z,1.73
2017-08-31T13:31:52.589Z,1.95
2017-08-31T13:34:20.346Z,1.58
2017-08-31T13:36:48.103Z,2.17
2017-08-31T13:39:15.809Z,1.55
2017-08-31T13:41:43.551Z,1.95
2017-08-31T13:44:11.290Z,1.83
2017-08-31T13:46:39.009Z,2.40
2017-08-31T13:49:06.772Z,2.10
2017-08-31T13:51:34.547Z,2.05
2017-08-31T13:54:02.273Z,1.77
2017-08-31T13:56:29.997Z,1.80
2017-08-31T13:58:57.727Z,1.60
2017-08-31T14:01:25.459Z,1.70
2017-08-31T14:03:53.201Z,2.05
2017-08-31T14:06:20.969Z,1.65
2017-08-31T14:08:48.695Z,1.50
2017-08-31T14:11:16.415Z,2.00
2017-08-31T14:13:44.147Z,2.00
2017-08-31T14:16:11.868Z,1.70
2017-08-31T14:18:39.612Z,1.83
2017-08-31T14:21:07.340Z,1.98
2017-08-31T14:23:35.073Z,2.28
2017-08-31T14:26:02.806Z,2.10
2017-08-31T14:28:30.518Z,1.90
2017-08-31T14:30:58.245Z,2.40
2017-08-31T14:33:25.971Z,2.05
2017-08-31T14:35:53.716Z,1.62
2017-08-31T14:38:21.440Z,1.70
2017-08-31T14:40:49.175Z,2.03
2017-08-31T14:43:16.925Z,1.62
2017-08-31T14:45:44.662Z,1.80
2017-08-31T14:48:12.394Z,1.60
2017-08-31T14:50:40.117Z,1.90
2017-08-31T14:53:07.846Z,2.00
2017-08-31T14:55:35.587Z,1.85
2017-08-31T14:58:03.298Z,1.75
2017-08-31T15:00:31.034Z,1.95
2017-08-31T15:02:58.789Z,2.15
2017-08-31T15:05:26.563Z,1.58
2017-08-31T15:07:54.307Z,1.58
2017-08-31T15:10:22.039Z,1.58
2017-08-31T15:12:49.803Z,1.27
2017-08-31T15:15:17.520Z,1.55
2017-08-31T15:22:01.998Z,2.12
2017-08-31T15:24:29.764Z,1.75
2017-08-31T15:26:57.492Z,1.75
2017-08-31T15:29:28.002Z,1.60
2017-08-31T15:31:55.733Z,1.40
2017-08-31T15:34:23.503Z,1.50
2017-08-31T15:36:51.366Z,2.03
2017-08-31T15:39:19.111Z,1.85
2017-08-31T15:41:53.339Z,1.70
2017-08-31T15:45:55.872Z,1.70
2017-08-31T15:48:23.595Z,1.50
2017-08-31T15:50:51.349Z,1.60
2017-08-31T15:53:19.087Z,1.67
2017-08-31T15:55:46.820Z,1.70
2017-08-31T15:58:14.591Z,1.83
2017-08-31T16:00:42.417Z,2.20
2017-08-31T16:03:21.748Z,1.65
2017-08-31T16:08:28.935Z,1.50
2017-08-31T16:11:08.379Z,1.80
2017-08-31T16:13:36.191Z,2.20
2017-08-31T16:16:03.941Z,2.15
2017-08-31T16:21:07.395Z,1.75
2017-08-31T16:23:42.097Z,2.20
2017-08-31T16:26:09.859Z,1.95
2017-08-31T16:28:40.522Z,1.90
2017-08-31T16:31:08.250Z,1.90
2017-08-31T16:33:35.972Z,1.90
2017-08-31T16:36:03.728Z,1.58
2017-08-31T16:38:31.458Z,1.80
2017-08-31T16:40:59.206Z,1.90
2017-08-31T16:43:26.968Z,2.22
2017-08-31T16:45:54.691Z,2.30
2017-08-31T16:48:22.458Z,1.85
2017-08-31T16:50:50.190Z,2.10
2017-08-31T16:53:17.919Z,2.00
2017-08-31T16:55:45.647Z,2.05
2017-08-31T16:58:13.369Z,2.28
2017-08-31T17:00:41.106Z,1.85
2017-08-31T17:03:08.822Z,1.90
2017-08-31T17:05:36.545Z,1.80
2017-08-31T17:08:04.265Z,2.22
2017-08-31T17:10:31.977Z,2.40
2017-08-31T17:12:59.706Z,2.05
2017-08-31T17:15:27.418Z,1.80
2017-08-31T17:17:55.178Z,2.37
2017-08-31T17:20:23.544Z,2.20
2017-08-31T17:22:51.274Z,1.85
2017-08-31T17:25:19.050Z,2.40
2017-08-31T17:27:46.790Z,1.80
2017-08-31T17:30:14.558Z,2.28
2017-08-31T17:32:42.287Z,2.10
2017-08-31T17:35:10.058Z,2.10
2017-08-31T17:37:37.822Z,2.10
2017-08-31T17:40:05.589Z,1.90
2017-08-31T17:42:33.392Z,2.22
2017-08-31T17:45:01.105Z,2.05
2017-08-31T17:47:29.762Z,1.70
2017-08-31T17:49:57.531Z,2.00
2017-08-31T17:52:25.254Z,2.15
2017-08-31T17:54:52.991Z,2.00
2017-08-31T17:57:20.705Z,2.28
2017-08-31T17:59:48.474Z,2.17
2017-08-31T18:02:16.240Z,2.08
2017-08-31T18:04:43.950Z,2.25
2017-08-31T18:07:11.692Z,2.12
2017-08-31T18:09:39.410Z,2.60
2017-08-31T18:12:07.187Z,2.45
2017-08-31T18:14:34.920Z,2.28
2017-08-31T18:17:02.735Z,2.22
2017-08-31T18:19:30.479Z,2.53
2017-08-31T18:21:58.237Z,1.98
2017-08-31T18:24:37.969Z,2.35
2017-08-31T18:27:05.708Z,2.50
2017-08-31T18:29:33.433Z,2.80
2017-08-31T18:32:01.165Z,2.25
2017-08-31T18:34:28.897Z,2.30
2017-08-31T18:36:56.651Z,2.20
2017-08-31T18:39:37.707Z,2.50
2017-08-31T18:42:08.390Z,2.20
2017-08-31T18:44:36.137Z,2.35
2017-08-31T18:47:03.897Z,2.83
2017-08-31T18:49:31.655Z,2.90
2017-08-31T18:57:55.787Z,2.37
2017-08-31T19:06:10.950Z,2.20
2017-08-31T19:08:41.078Z,2.40
2017-08-31T19:11:08.785Z,2.33
2017-08-31T19:13:36.499Z,2.50
2017-08-31T19:16:04.236Z,2.65
2017-08-31T19:18:31.976Z,3.22
2017-08-31T19:20:59.702Z,3.45
2017-08-31T19:23:27.417Z,2.80
2017-08-31T19:25:59.157Z,4.25
2017-08-31T19:28:32.459Z,4.25
2017-08-31T19:31:04.833Z,2.83
2017-08-31T19:33:32.729Z,3.20
2017-08-31T19:36:00.738Z,3.40
2017-08-31T19:38:28.457Z,2.83
2017-08-31T19:40:56.205Z,2.85
2017-08-31T19:43:23.927Z,3.75
2017-08-31T19:45:52.500Z,3.05
2017-08-31T19:48:20.220Z,3.37
2017-08-31T19:50:47.946Z,2.80
2017-08-31T19:53:15.660Z,3.35
2017-08-31T19:55:43.427Z,3.03
2017-08-31T19:58:11.486Z,2.50
2017-08-31T20:00:39.240Z,2.83
2017-08-31T20:03:06.959Z,2.90
2017-08-31T20:05:34.684Z,2.40
2017-08-31T20:08:02.389Z,2.53
2017-08-31T20:10:30.417Z,2.47
2017-08-31T20:12:58.179Z,2.40
2017-08-31T20:15:25.897Z,3.30
2017-08-31T20:17:53.616Z,2.67
2017-08-31T20:20:21.335Z,3.03
2017-08-31T20:22:49.094Z,2.90
2017-08-31T20:25:16.851Z,2.45
2017-08-31T20:27:44.568Z,3.03
2017-08-31T20:30:12.303Z,2.70
2017-08-31T20:32:40.018Z,2.58
2017-08-31T20:35:08.911Z,3.67
2017-08-31T20:37:38.352Z,3.28
2017-08-31T20:40:07.062Z,3.47
2017-08-31T20:42:40.431Z,3.30
2017-08-31T20:45:10.386Z,3.58
2017-08-31T20:47:47.553Z,3.53
2017-08-31T20:50:17.633Z,3.80
2017-08-31T20:52:46.346Z,3.62
2017-08-31T20:55:15.789Z,3.40
2017-08-31T20:57:47.375Z,3.60
2017-08-31T21:00:15.467Z,4.22
2017-08-31T21:02:45.872Z,4.22
2017-08-31T21:05:20.440Z,3.92
2017-08-31T21:07:48.332Z,3.60
2017-08-31T21:10:19.499Z,3.90
2017-08-31T21:12:47.506Z,3.28
2017-08-31T21:15:15.853Z,3.28
2017-08-31T21:17:45.172Z,3.62
2017-08-31T21:22:51.138Z,3.47
2017-08-31T21:28:03.595Z,3.30
2017-08-31T21:30:33.217Z,3.25
2017-08-31T21:33:03.205Z,3.40
2017-08-31T21:35:33.793Z,3.50
2017-08-31T21:38:04.021Z,3.20
2017-08-31T21:40:31.820Z,3.20
2017-08-31T21:45:41.149Z,3.70
2017-08-31T21:48:08.934Z,3.50
2017-08-31T21:50:38.479Z,3.20
2017-08-31T21:53:08.117Z,3.47
2017-08-31T21:55:36.908Z,3.83
2017-08-31T21:58:08.706Z,4.00
2017-08-31T22:00:43.273Z,3.80
2017-08-31T22:03:11.971Z,4.07
2017-08-31T22:05:40.961Z,4.18
2017-08-31T22:08:12.243Z,3.85
2017-08-31T22:10:41.439Z,3.70
2017-08-31T22:13:10.094Z,3.65
2017-08-31T22:15:44.238Z,3.22
2017-08-31T22:18:20.462Z,3.83
2017-08-31T22:20:51.336Z,3.33
2017-08-31T22:25:54.349Z,3.20
2017-08-31T22:28:23.528Z,3.47
2017-08-31T22:30:52.739Z,3.40
2017-08-31T22:33:20.653Z,3.75
2017-08-31T22:35:51.031Z,3.40
2017-08-31T22:38:22.553Z,3.55
2017-08-31T22:40:51.343Z,3.78
2017-08-31T22:43:24.562Z,3.08
2017-08-31T22:45:53.281Z,3.40
2017-08-31T22:48:32.491Z,3.33
2017-08-31T22:51:02.472Z,3.08
2017-08-31T22:53:33.805Z,3.10
2017-08-31T22:56:02.319Z,3.60
2017-08-31T22:58:42.094Z,3.30
2017-08-31T23:01:09.867Z,3.20
2017-08-31T23:03:39.434Z,3.70
2017-08-31T23:06:07.991Z,3.10
2017-08-31T23:08:37.613Z,3.72
2017-08-31T23:11:05.425Z,3.30
2017-08-31T23:13:33.143Z,3.30
2017-08-31T23:16:03.744Z,3.62
2017-08-31T23:18:32.375Z,3.55
2017-08-31T23:21:02.002Z,3.37
2017-08-31T23:23:32.502Z,3.87
2017-08-31T23:26:01.330Z,4.15
2017-08-31T23:28:34.686Z,3.58
2017-08-31T23:31:03.227Z,3.05
2017-08-31T23:33:35.243Z,2.83
2017-08-31T23:36:11.478Z,4.22
2017-08-31T23:38:39.890Z,3.65
2017-08-31T23:41:09.360Z,3.87
2017-08-31T23:43:39.250Z,3.60
2017-08-31T23:46:10.136Z,4.00
2017-08-31T23:48:39.203Z,3.62
2017-08-31T23:51:09.402Z,3.40
2017-08-31T23:53:38.801Z,3.53
2017-08-31T23:56:13.211Z,4.07
2017-08-31T23:58:49.134Z,3.60
